Flight Track Log - Related Links

Times and Time Zones

All times are in EDT time to prevent confusion due to time zone crossing. See the SWA449 flight status page for this flight to view local times or setup timezone preferences in your user account.

Time Position Orientation Groundspeed Altitude Reporting Facility
EDT Latitude Longitude Course Direction KTS MPH feet Rate Location/Type
Sun 11:39:31 PM 36.1058 -115.1522 78° East 172 198 3,100  Level Los Angeles Center
Sun 11:44:45 PM 36.1906 -114.6572 91° East 331 381 17,800 2,744 Climbing Los Angeles Center
Sun 11:46:09 PM 36.1886 -114.5028 87° East 354 407 21,300 2,792 Climbing Los Angeles Center
Sun 11:47:09 PM 36.1947 -114.3406 70° East 376 433 24,500 2,628 Climbing Los Angeles Center
Sun 11:48:10 PM 36.2344 -114.2083 66° East 391 450 26,600 2,000 Climbing Los Angeles Center
Sun 11:49:09 PM 36.2825 -114.0733 66° East 403 464 28,500 1,800 Climbing Los Angeles Center
Sun 11:50:10 PM 36.3322 -113.9353 67° East 421 484 30,200 1,650 Climbing Los Angeles Center
Sun 11:51:09 PM 36.3817 -113.7922 67° East 433 498 31,800 1,750 Climbing Los Angeles Center
Sun 11:52:10 PM 36.4308 -113.6461 66° East 445 512 33,700 1,736 Climbing Los Angeles Center
Sun 11:53:10 PM 36.4822 -113.5025 67° East 445 512 35,300 1,361 Climbing Los Angeles Center
Sun 11:54:09 PM 36.5272 -113.3692 67° East 445 512 36,400 1,109 Climbing Los Angeles Center
Sun 11:55:09 PM 36.5819 -113.2072 67° East 451 519 37,500 1,250 Climbing Los Angeles Center
Sun 11:56:09 PM 36.6325 -113.0578 68° East 457 526 38,900 750 Climbing Los Angeles Center
Sun 11:57:09 PM 36.6808 -112.9083 67° East 462 532 39,000 50 Climbing Los Angeles Center
Sun 11:58:09 PM 36.7308 -112.7586 68° East 462 532 39,000  Level Los Angeles Center
Sun 11:59:09 PM 36.7808 -112.6061 68° East 462 532 39,000  Level Los Angeles Center
Mon 12:00:09 AM 36.8306 -112.4533 68° East 462 532 39,000  Level Los Angeles Center
Mon 12:01:09 AM 36.8783 -112.3058 68° East 462 532 39,000  Level Los Angeles Center
Mon 12:02:49 AM 36.9608 -112.0533 68° East 483 556 39,000  Level Denver Center
Mon 12:03:49 AM 37.0100 -111.9011 68° East 483 556 39,000  Level Denver Center
Mon 12:04:49 AM 37.0589 -111.7489 65° Northeast 483 556 39,000  Level Denver Center
Mon 12:05:49 AM 37.1156 -111.5994 64° Northeast 478 550 39,000  Level Denver Center
Mon 12:06:49 AM 37.1792 -111.4369 64° Northeast 473 544 39,000  Level Denver Center
Mon 12:07:49 AM 37.2378 -111.2872 64° Northeast 473 544 39,000  Level Denver Center
Mon 12:08:49 AM 37.2961 -111.1372 64° Northeast 473 544 39,000  Level Denver Center
Mon 12:09:49 AM 37.3542 -110.9894 62° Northeast 473 544 39,000  Level Denver Center
Mon 12:10:49 AM 37.4142 -110.8442 64° Northeast 473 544 39,000  Level Denver Center
Mon 12:11:49 AM 37.4697 -110.6986 64° Northeast 468 539 39,000  Level Denver Center
Mon 12:12:49 AM 37.5272 -110.5500 60° Northeast 468 539 39,000  Level Denver Center
Mon 12:13:49 AM 37.5928 -110.4044 65° Northeast 461 531 39,000  Level Denver Center
Mon 12:14:49 AM 37.6478 -110.2581 64° Northeast 466 536 39,000  Level Denver Center
Mon 12:15:49 AM 37.7069 -110.1064 64° Northeast 466 536 39,000  Level Denver Center
Mon 12:16:49 AM 37.7592 -109.9725 65° Northeast 474 545 39,000  Level Denver Center
Mon 12:17:49 AM 37.8203 -109.8100 64° Northeast 474 545 39,000  Level Denver Center
Mon 12:18:49 AM 37.8789 -109.6550 64° Northeast 474 545 39,000  Level Denver Center
Mon 12:19:49 AM 37.9372 -109.5050 66° East 479 551 39,000  Level Denver Center
Mon 12:20:49 AM 37.9869 -109.3647 65° Northeast 479 551 39,000  Level Denver Center
Mon 12:21:49 AM 38.0494 -109.1958 65° Northeast 479 551 39,000  Level Denver Center
Mon 12:22:49 AM 38.1050 -109.0425 65° Northeast 472 543 39,000  Level Denver Center
Mon 12:23:49 AM 38.1561 -108.9044 65° Northeast 472 543 39,000  Level Denver Center
Mon 12:24:49 AM 38.2136 -108.7478 65° Northeast 472 543 39,000  Level Denver Center
Mon 12:25:49 AM 38.2753 -108.5778 65° Northeast 481 554 39,000  Level Denver Center
Mon 12:26:49 AM 38.3300 -108.4261 65° Northeast 476 548 39,000  Level Denver Center
Mon 12:27:49 AM 38.3825 -108.2844 66° East 483 556 39,000  Level Denver Center
Mon 12:28:48 AM 38.4433 -108.1111 65° Northeast 484 557 39,000  Level Denver Center
Mon 12:29:48 AM 38.4997 -107.9586 66° East 484 557 39,000  Level Denver Center
Mon 12:30:48 AM 38.5539 -107.8006 66° East 475 547 39,000  Level Denver Center
Mon 12:31:48 AM 38.6033 -107.6606 65° Northeast 480 552 39,000  Level Denver Center
Mon 12:32:48 AM 38.6653 -107.4889 66° East 480 552 39,000  Level Denver Center
Mon 12:33:49 AM 38.7189 -107.3353 66° East 480 552 39,000 -347 Level Denver Center
Mon 12:34:49 AM 38.7697 -107.1919 66° East 480 552 38,300 -807 Descending Denver Center
Mon 12:35:48 AM 38.8250 -107.0328 66° East 485 558 37,400 -1,008 Descending Denver Center
Mon 12:36:48 AM 38.8861 -106.8544 66° East 485 558 36,300 -1,000 Descending Denver Center
Mon 12:37:48 AM 38.9408 -106.6975 66° East 485 558 35,400 -900 Descending Denver Center
Mon 12:38:48 AM 38.9889 -106.5586 68° East 474 545 34,500 -1,200 Descending Denver Center
Mon 12:39:48 AM 39.0411 -106.3931 66° East 481 554 33,000 -2,150 Descending Denver Center
Mon 12:40:48 AM 39.1033 -106.2136 67° East 492 566 30,200 -2,250 Descending Denver Center
Mon 12:41:48 AM 39.1592 -106.0447 67° East 502 578 28,500 -2,100 Descending Denver Center
Mon 12:42:48 AM 39.2128 -105.8836 67° East 494 568 26,000 -2,550 Descending Denver Center
Mon 12:43:48 AM 39.2658 -105.7222 57° Northeast 489 563 23,400 -2,550 Descending Denver Center
Mon 12:44:48 AM 39.3339 -105.5847 57° Northeast 466 536 20,900 -2,200 Descending Denver Center
Mon 12:45:48 AM 39.3953 -105.4631 91° East 454 522 19,000 -1,100 Descending Denver Center
Mon 12:46:48 AM 39.3939 -105.3153 91° East 405 466 18,700 -700 Descending Denver Center
Mon 12:47:48 AM 39.3925 -105.1728 90° East 398 458 17,600 -1,550 Descending Denver Center
Mon 12:48:48 AM 39.3928 -105.0303 70° East 398 458 15,600 -1,800 Descending Denver Center
Mon 12:49:48 AM 39.4286 -104.9006 67° East 388 447 14,000 -1,300 Descending Denver Center
Mon 12:50:48 AM 39.4667 -104.7833 63° Northeast 315 362 13,000 -850 Descending Denver TRACON
Mon 12:51:48 AM 39.5000 -104.7000 21° North 271 312 12,300 -800 Descending Denver TRACON
Mon 12:52:48 AM 39.5667 -104.6667 360° North 259 298 11,400 -1,000 Descending Denver TRACON
Mon 12:53:48 AM 39.6333 -104.6667 360° North 227 261 10,300 -1,667 Descending Denver TRACON
Mon 12:54:36 AM 39.6833 -104.6667 360° North 229 264 8,400 -1,667 Descending Denver TRACON
Mon 12:55:36 AM 39.7333 -104.6667 360° North 194 223 7,300 -1,158 Descending Denver TRACON
Mon 12:56:30 AM 39.7833 -104.6667 360° North 148 170 6,200 -1,222 Descending Denver TRACON
Mon 01:03:32 AM 39.8500 -104.6667 337° Northwest  Level FlightAware Approximate
Mon 01:04:32 AM 39.9676 -104.7322 157° South  Level Estimated
Mon 01:05:32 AM 39.8500 -104.6667 337° Northwest  Level FlightAware Approximate
Mon 01:06:32 AM 39.9676 -104.7322 337° Northwest  Level Estimated

Login

Don't have an account? Register now (free) for customized features, flight alerts, and more!